Latest Coastal Weather Observations for Cape Borda

IDT60701

Issued at 11:52 pm EST Friday 26 August 2016 (issued every 10 minutes, with the page automatically refreshed every 10 minutes)

About coastal observations | Map of coastal stations | Coastal observations for TAS | Marine services | Other Formats
Station Details ID: 022823 Name: CAPE BORDA Lat: -35.75 Lon: 136.60 Height: 158.0 m
Data from the previous 72 hours. | See also: Recent months at Cape Borda
Date/Time
EST
Temp
°C
Wind Pressure Rain since
9am
mm
Weather Cloud Vis
km
Sea
Height
m
Swell
Dir  Spd
kts
Gust
kts
hPa Trend Height
m
Period
s
Dir
26/11:30pm 10.4 NW 8 11 1022.0 - 0.0 - - - - - - -
26/11:00pm 10.2 NW 7 10 1022.3 - 0.0 - - - - - - -
26/10:30pm 10.0 NW 7 10 1022.5 - 0.0 - - - - - - -
26/10:00pm 9.8 NW 6 8 1022.6 - 0.0 - - - - - - -
26/09:30pm 9.8 NW 7 9 1022.7 - 0.0 - - - - - - -
26/09:00pm 9.6 WNW 6 9 1022.9 - 0.0 - - - - - - -
26/08:30pm 9.5 WNW 7 9 1022.9 - 0.0 - - - - - - -
26/08:00pm 9.2 WNW 5 7 1023.0 - 0.0 - - - - - - -
26/07:30pm 9.5 W 6 8 1023.1 - 0.0 - - - - - - -
26/07:00pm 9.6 WSW 5 9 1022.8 - 0.0 - - - - - - -
26/06:30pm 10.8 W 7 9 1022.9 - 0.0 - - - - - - -
26/06:00pm 11.5 W 8 11 1022.9 - 0.0 - - - - - - -
26/05:30pm 12.1 W 8 12 1022.4 - 0.0 - - - - - - -
26/05:00pm 12.9 W 6 9 1022.4 - 0.0 - - - - - - -
26/04:30pm 11.7 WNW 6 8 1022.3 - 0.0 - - - - - - -
26/04:00pm 11.9 NW 6 8 1022.4 - 0.0 - - - - - - -
26/03:30pm 12.4 WNW 7 10 1022.6 F 0.0 Fine Mostly cloudy 35 <0.1 3.8 8 SW
26/03:00pm 11.9 WNW 7 9 1022.7 - 0.0 - - - - - - -
26/02:30pm 12.0 WNW 7 10 1023.0 - 0.0 - - - - - - -
26/02:00pm 11.8 WNW 9 13 1023.3 - 0.0 - - - - - - -
26/01:30pm 12.2 WNW 7 11 1023.5 - 0.0 - - - - - - -
26/01:00pm 11.6 WNW 8 10 1024.0 - 0.0 - - - - - - -
26/12:30pm 11.3 NW 7 11 1024.4 - 0.0 - - - - - - -
26/12:00pm 11.3 NW 6 10 1024.5 - 0.0 - - - - - - -
26/11:30am 11.3 WNW 5 8 1024.8 - 0.0 - - - - - - -
26/11:00am 11.3 WNW 5 7 1024.8 - 0.0 - - - - - - -
26/10:30am 11.1 NW 5 8 1025.0 - 0.0 - - - - - - -
26/10:00am 10.8 W 6 8 1025.2 - 0.0 - - - - - - -
26/09:30am 10.3 SW 8 11 1025.4 R 0.6 Fine Mostly cloudy 35 Calm 4.0 9 SW
26/09:00am 10.1 SW 7 11 1025.0 - 0.6 - - - - - - -
26/08:30am 10.0 SW 9 13 1024.9 - 0.6 - - - - - - -
26/08:00am 9.6 WSW 5 7 1024.6 - 0.6 - - - - - - -
26/07:30am 8.8 S 4 6 1024.4 - 0.6 - - - - - - -
26/07:00am 9.1 S 5 7 1024.1 - 0.6 - - - - - - -
26/06:30am 9.5 SSW 7 10 1024.0 - 0.6 - - - - - - -
26/06:00am 8.8 S 6 7 1023.5 - 0.6 - - - - - - -
26/05:30am 9.5 SSW 5 7 1023.3 - 0.6 - - - - - - -
26/05:00am 9.6 SW 7 11 1023.1 - 0.6 - - - - - - -
26/04:30am 9.2 SSW 2 7 1023.0 - 0.6 - - - - - - -
26/04:00am 8.9 SSE 5 7 1023.1 - 0.6 - - - - - - -
26/03:30am 9.2 SW 6 10 1023.5 - 0.6 - - - - - - -
26/03:00am 8.7 S 6 7 1023.3 - 0.6 - - - - - - -
26/02:30am 9.2 S 7 11 1023.5 - 0.6 - - - - - - -
26/02:00am 9.5 SSW 9 13 1023.7 - 0.6 - - - - - - -
26/01:30am 9.3 SSW 7 12 1023.5 - 0.6 - - - - - - -
26/01:00am 9.4 S 7 9 1023.5 - 0.6 - - - - - - -
26/12:30am 9.8 SW 10 13 1023.7 - 0.6 - - - - - - -
26/12:00am 9.1 S 8 11 1023.4 - 0.6 - - - - - - -
 
Date/Time
EST
Temp
°C
Wind Pressure Rain since
9am
mm
Weather Cloud Vis
km
Sea
Height
m
Swell
Dir  Spd
kts
Gust
kts
hPa Trend Height
m
Period
s
Dir
25/11:30pm 8.9 S 8 11 1023.2 - 0.6 - - - - - - -
25/11:00pm 8.5 S 6 8 1023.3 - 0.6 - - - - - - -
25/10:30pm 8.2 S 8 11 1023.3 - 0.6 - - - - - - -
25/10:00pm 8.2 S 8 11 1023.2 - 0.6 - - - - - - -
25/09:30pm 8.4 S 8 9 1023.4 - 0.6 - - - - - - -
25/09:00pm 8.1 S 8 9 1023.0 - 0.6 - - - - - - -
25/08:30pm 8.4 SSE 8 10 1023.0 - 0.6 - - - - - - -
25/08:00pm 7.8 SSE 9 9 1022.6 - 0.6 - - - - - - -
25/07:30pm 8.4 SSE 9 11 1022.5 - 0.6 - - - - - - -
25/07:00pm 8.4 S 9 11 1022.2 - 0.6 - - - - - - -
25/06:30pm 8.9 S 8 9 1022.0 - 0.6 - - - - - - -
25/06:00pm 9.8 S 9 12 1021.8 - 0.6 - - - - - - -
25/05:30pm 10.0 S 7 10 1021.6 - 0.4 - - - - - - -
25/05:00pm 12.2 S 8 11 1021.3 - 0.0 - - - - - - -
25/04:30pm 13.0 S 11 16 1021.1 - 0.0 - - - - - - -
25/04:00pm 13.4 SW 11 16 1020.9 - 0.0 - - - - - - -
25/03:30pm 13.1 SSW 12 18 1020.8 - 0.0 - - - - - - -
25/03:00pm 13.6 SW 13 17 1020.5 - 0.0 - - - - - - -
25/02:30pm 13.4 SW 12 17 1020.3 - 0.0 - - - - - - -
25/02:00pm 13.7 SW 11 15 1020.3 - 0.0 - - - - - - -
25/01:30pm 12.8 SSW 9 14 1020.5 - 0.0 - - - - - - -
25/01:00pm 13.5 S 8 13 1020.9 - 0.0 - - - - - - -
25/12:30pm 13.0 S 9 13 1021.2 - 0.0 - - - - - - -
25/12:00pm 13.7 S 11 15 1021.1 - 0.0 - - - - - - -
25/11:30am 13.2 S 9 13 1021.2 - 0.0 - - - - - - -
25/11:00am 13.2 S 9 13 1021.2 - 0.0 - - - - - - -
25/10:30am 12.5 S 7 11 1021.3 - 0.0 - - - - - - -
25/10:00am 11.8 SSE 8 12 1021.0 - 0.0 - - - - - - -
25/09:30am 11.2 SSE 7 11 1020.8 - 0.0 - - - - - - -
25/09:00am 10.2 SSE 7 9 1020.2 - 0.0 - - - - - - -
25/08:30am 9.1 SE 6 8 1019.8 - 0.0 - - - - - - -
25/08:00am 7.6 SE 9 9 1019.4 - 0.0 - - - - - - -
25/07:30am 7.0 SE 9 10 1019.1 - 0.0 - - - - - - -
25/07:00am 6.8 SE 9 11 1018.8 - 0.0 - - - - - - -
25/06:30am 6.3 SE 9 9 1018.7 - 0.0 - - - - - - -
25/06:00am 5.9 ESE 8 9 1018.2 - 0.0 - - - - - - -
25/05:30am 6.3 ESE 7 7 1018.1 - 0.0 - - - - - - -
25/05:00am 5.7 ESE 6 6 1017.9 - 0.0 - - - - - - -
25/04:30am 6.3 E 5 6 1017.7 - 0.0 - - - - - - -
25/04:00am 6.3 E 5 5 1017.7 - 0.0 - - - - - - -
25/03:30am 6.3 ENE 5 6 1017.9 - 0.0 - - - - - - -
25/03:00am 5.9 E 5 5 1017.8 - 0.0 - - - - - - -
25/02:30am 5.9 E 8 9 1017.8 - 0.0 - - - - - - -
25/02:00am 6.0 ESE 9 10 1017.7 - 0.0 - - - - - - -
25/01:30am 5.9 ESE 9 10 1017.8 - 0.0 - - - - - - -
25/01:00am 5.5 ESE 9 11 1017.7 - 0.0 - - - - - - -
25/12:30am 6.0 SE 10 11 1017.8 - 0.0 - - - - - - -
25/12:00am 6.3 ESE 10 11 1017.6 - 0.0 - - - - - - -
 
Date/Time
EST
Temp
°C
Wind Pressure Rain since
9am
mm
Weather Cloud Vis
km
Sea
Height
m
Swell
Dir  Spd
kts
Gust
kts
hPa Trend Height
m
Period
s
Dir
24/11:30pm 6.5 ESE 10 11 1017.7 - 0.0 - - - - - - -
24/11:00pm 7.0 ESE 10 13 1017.7 - 0.0 - - - - - - -
24/10:30pm 7.1 ESE 10 13 1017.7 - 0.0 - - - - - - -
24/10:00pm 7.1 ESE 10 12 1017.6 - 0.0 - - - - - - -
24/09:30pm 7.0 ESE 10 12 1017.7 - 0.0 - - - - - - -
24/09:00pm 7.1 ESE 9 11 1017.1 - 0.0 - - - - - - -
24/08:30pm 7.5 ESE 9 11 1016.9 - 0.0 - - - - - - -
24/08:00pm 7.8 ESE 8 10 1016.6 - 0.0 - - - - - - -
24/07:30pm 8.4 SE 8 9 1016.4 - 0.0 - - - - - - -
24/07:00pm 9.1 SE 7 8 1016.2 - 0.0 - - - - - - -
24/06:30pm 10.2 SE 6 8 1016.0 - 0.0 - - - - - - -
24/06:00pm 11.5 SSE 5 6 1015.6 - 0.0 - - - - - - -
24/05:30pm 12.5 SSE 5 7 1015.4 - 0.0 - - - - - - -
24/05:00pm 12.3 SSE 7 10 1015.3 - 0.0 - - - - - - -
24/04:30pm 12.9 SE 9 13 1015.0 - 0.0 - - - - - - -
24/04:00pm 11.8 SE 10 15 1015.1 - 0.0 - - - - - - -
24/03:30pm 13.2 ESE 9 13 1015.2 - 0.0 - - - - - - -
24/03:00pm 13.6 N 6 8 1015.0 - 0.0 - - - - - - -
24/02:30pm 13.5 N 6 9 1015.1 - 0.0 - - - - - - -
24/02:00pm 13.7 NNW 7 10 1015.1 - 0.0 - - - - - - -
24/01:30pm 13.4 N 9 11 1015.5 - 0.0 - - - - - - -
24/01:00pm 14.1 N 8 11 1015.8 - 0.0 - - - - - - -
24/12:30pm 13.4 N 9 11 1016.1 - 0.0 - - - - - - -
24/12:00pm 13.4 N 9 11 1016.2 - 0.0 - - - - - - -
24/11:30am 12.9 NNE 9 13 1016.0 - 0.0 - - - - - - -
24/11:00am 12.8 NE 10 14 1016.0 - 0.0 - - - - - - -
24/10:30am 12.3 NE 10 14 1015.9 - 0.0 - - - - - - -
24/10:00am 11.7 E 9 13 1016.0 - 0.0 - - - - - - -
24/09:30am 10.7 E 9 13 1015.9 - 2.0 - - - - - - -
24/09:00am 9.1 E 8 11 1015.8 - 2.0 - - - - - - -
24/08:30am 7.8 E 7 8 1015.7 - 2.0 - - - - - - -
24/08:00am 5.9 E 8 9 1015.7 - 2.0 - - - - - - -
24/07:30am 5.4 E 7 8 1015.7 - 2.0 - - - - - - -
24/07:00am 5.4 E 8 8 1015.5 - 2.0 - - - - - - -
24/06:30am 5.5 E 7 8 1015.5 - 2.0 - - - - - - -
24/06:00am 5.3 ESE 8 9 1015.3 - 2.0 - - - - - - -
24/05:30am 5.3 ESE 8 8 1015.3 - 2.0 - - - - - - -
24/05:00am 5.3 ESE 8 8 1015.2 - 2.0 - - - - - - -
24/04:30am 5.3 ESE 7 8 1015.4 - 1.8 - - - - - - -
24/04:00am 5.8 E 8 9 1015.3 - 1.8 - - - - - - -
24/03:30am 6.1 E 9 10 1015.6 - 1.8 - - - - - - -
24/03:00am 6.3 E 9 10 1015.7 - 1.8 - - - - - - -
24/02:30am 6.0 E 8 9 1015.8 - 1.8 - - - - - - -
24/02:00am 5.9 E 8 9 1016.0 - 1.8 - - - - - - -
24/01:30am 6.1 ESE 8 9 1016.0 - 1.8 - - - - - - -
24/01:00am 6.6 E 9 10 1016.2 - 1.8 - - - - - - -
24/12:30am 6.8 E 9 9 1016.6 - 1.8 - - - - - - -

Other Formats:

Comma delimited format used in spreadsheet applications
http://www.bom.gov.au/fwo/IDT60701/IDT60701.95805.axf

JavaScript Object Notation format (JSON) in row-major order
http://www.bom.gov.au/fwo/IDT60701/IDT60701.95805.json